Time;durP1;ratioP1;P1;durP2;ratioP2;P2;SDS_P1;SDS_P2;PMS_P1;PMS_P2;Temp;Humidity;BMP_temperature;BMP_pressure;BME280_temperature;BME280_humidity;BME280_pressure;Samples;Min_cycle;Max_cycle;Signal;HPM_P1;HPM_P2
2021/01/22 00:01:03;;;;;;;1.50;0.70;;;11.20;99.90;;;;;;5073062;28;20537;-72
2021/01/22 00:03:30;;;;;;;1.97;0.90;;;11.20;99.90;;;;;;5073659;28;20882;-72
2021/01/22 00:05:56;;;;;;;1.93;0.90;;;11.30;99.90;;;;;;5073453;28;20529;-72
2021/01/22 00:08:22;;;;;;;1.67;1.00;;;11.30;99.90;;;;;;5073546;28;20917;-72
2021/01/22 00:10:49;;;;;;;1.50;0.83;;;11.20;99.90;;;;;;5073244;28;20507;-72
2021/01/22 00:13:16;;;;;;;3.10;1.03;;;11.20;99.90;;;;;;5073301;28;20462;-72
2021/01/22 00:15:42;;;;;;;1.60;0.80;;;11.10;99.90;;;;;;5073404;28;20545;-73
2021/01/22 00:18:09;;;;;;;2.57;1.10;;;11.00;99.90;;;;;;5073653;28;20499;-73
2021/01/22 00:20:35;;;;;;;1.60;0.80;;;10.90;99.90;;;;;;5072782;28;20533;-72
2021/01/22 00:23:04;;;;;;;1.70;1.10;;;10.80;99.90;;;;;;5072974;28;21072;-73
2021/01/22 00:25:30;;;;;;;2.07;1.00;;;10.70;99.90;;;;;;5073409;28;20442;-73
2021/01/22 00:27:56;;;;;;;1.60;0.90;;;10.70;99.90;;;;;;5073000;28;20796;-73
2021/01/22 00:30:24;;;;;;;4.97;1.57;;;10.60;99.90;;;;;;5073013;28;20447;-72
2021/01/22 00:32:51;;;;;;;1.70;0.87;;;10.60;99.90;;;;;;5073104;28;20546;-74
2021/01/22 00:35:17;;;;;;;1.60;0.97;;;10.50;99.90;;;;;;5073212;28;20475;-72
2021/01/22 00:37:43;;;;;;;1.50;0.73;;;10.40;99.90;;;;;;5073202;28;20551;-73
2021/01/22 00:40:10;;;;;;;2.10;1.17;;;10.40;99.90;;;;;;5072378;28;20479;-73
2021/01/22 00:42:37;;;;;;;1.50;0.80;;;10.30;99.90;;;;;;5072935;28;20562;-73
2021/01/22 00:45:05;;;;;;;1.90;1.03;;;10.30;99.90;;;;;;5072482;28;20446;-73
2021/01/22 00:47:32;;;;;;;1.20;0.63;;;10.20;99.90;;;;;;5072909;28;20677;-73
2021/01/22 00:49:58;;;;;;;1.60;0.90;;;10.10;99.90;;;;;;5072135;28;20492;-73
2021/01/22 00:52:25;;;;;;;1.80;1.13;;;10.10;99.90;;;;;;5072907;28;20554;-71
2021/01/22 00:54:51;;;;;;;2.90;1.10;;;10.00;99.90;;;;;;5072431;28;20482;-72
2021/01/22 00:57:17;;;;;;;2.40;1.00;;;10.00;99.90;;;;;;5072674;28;20525;-72
2021/01/22 00:59:44;;;;;;;1.70;0.70;;;9.90;99.90;;;;;;5072209;28;20458;-72
2021/01/22 01:02:10;;;;;;;1.80;0.80;;;9.80;99.90;;;;;;5072475;28;20558;-72
2021/01/22 01:04:37;;;;;;;1.63;0.90;;;9.90;99.90;;;;;;5072479;28;20458;-72
2021/01/22 01:07:04;;;;;;;2.43;1.17;;;9.90;99.90;;;;;;5072367;28;20814;-72
2021/01/22 01:09:30;;;;;;;3.60;0.80;;;9.90;99.90;;;;;;5071607;28;20877;-72
2021/01/22 01:11:57;;;;;;;1.97;0.90;;;9.80;99.90;;;;;;5072279;28;20474;-72
2021/01/22 01:14:23;;;;;;;1.40;0.80;;;9.80;99.90;;;;;;5072258;28;20453;-72
2021/01/22 01:16:50;;;;;;;1.50;0.70;;;9.80;99.90;;;;;;5071783;28;20554;-72
2021/01/22 01:19:16;;;;;;;2.33;0.80;;;9.80;99.90;;;;;;5071727;28;20550;-72
2021/01/22 01:21:43;;;;;;;2.33;1.00;;;9.80;99.90;;;;;;5072249;28;20577;-73
2021/01/22 01:24:10;;;;;;;1.77;0.83;;;9.80;99.90;;;;;;5072156;28;20447;-73
2021/01/22 01:26:36;;;;;;;1.40;0.80;;;9.70;99.90;;;;;;5071947;28;20487;-73
2021/01/22 01:29:03;;;;;;;1.60;0.90;;;9.70;99.90;;;;;;5072541;28;21116;-73
2021/01/22 01:31:30;;;;;;;1.80;0.90;;;9.60;99.90;;;;;;5072266;28;20498;-73
2021/01/22 01:33:57;;;;;;;1.50;0.87;;;9.50;99.90;;;;;;5072367;28;20890;-73
2021/01/22 01:36:23;;;;;;;2.10;0.90;;;9.60;99.90;;;;;;5071784;28;20865;-73
2021/01/22 01:38:50;;;;;;;1.40;0.67;;;9.60;99.90;;;;;;5072060;28;20449;-73
2021/01/22 01:41:17;;;;;;;1.50;0.80;;;9.60;99.90;;;;;;5071149;28;20525;-73
2021/01/22 01:43:43;;;;;;;1.40;0.67;;;9.70;99.90;;;;;;5070427;28;20466;-73
2021/01/22 01:46:09;;;;;;;2.90;1.00;;;9.70;99.90;;;;;;5070588;28;20514;-73
2021/01/22 01:48:36;;;;;;;2.80;0.70;;;9.80;99.90;;;;;;5071738;28;20921;-73
2021/01/22 01:51:02;;;;;;;2.13;0.80;;;9.80;99.90;;;;;;5070791;28;20445;-73
2021/01/22 01:53:29;;;;;;;1.70;0.80;;;9.90;99.90;;;;;;5071494;28;20557;-73
2021/01/22 01:55:57;;;;;;;2.73;0.80;;;9.90;99.90;;;;;;5070867;28;20446;-73
2021/01/22 01:58:25;;;;;;;1.40;0.70;;;9.90;99.90;;;;;;5071526;28;20520;-73
2021/01/22 02:00:51;;;;;;;2.07;0.77;;;9.90;99.90;;;;;;5071356;28;20453;-73
2021/01/22 02:03:18;;;;;;;1.63;0.93;;;10.00;99.90;;;;;;5071457;28;20467;-73
2021/01/22 02:05:46;;;;;;;1.30;0.70;;;10.00;99.90;;;;;;5071383;28;20522;-73
2021/01/22 02:08:14;;;;;;;1.80;0.80;;;10.10;99.90;;;;;;5071941;28;20924;-73
2021/01/22 02:10:40;;;;;;;1.63;0.80;;;10.10;99.90;;;;;;5070669;28;20547;-73
2021/01/22 02:13:09;;;;;;;1.80;0.63;;;10.10;99.90;;;;;;5071708;28;20516;-73
2021/01/22 02:15:35;;;;;;;2.07;0.70;;;10.20;99.90;;;;;;5071200;28;20890;-73
2021/01/22 02:18:02;;;;;;;1.40;0.70;;;10.20;99.90;;;;;;5071020;28;20447;-73
2021/01/22 02:20:38;;;;;;;1.40;0.73;;;10.30;99.90;;;;;;5070538;28;20443;-73
2021/01/22 02:23:05;;;;;;;1.83;0.70;;;10.40;99.90;;;;;;5071020;28;20518;-73
2021/01/22 02:25:34;;;;;;;3.10;0.80;;;10.40;99.90;;;;;;5070949;28;20542;-73
2021/01/22 02:28:03;;;;;;;2.13;1.00;;;10.40;99.90;;;;;;5070997;28;20490;-73
2021/01/22 02:30:30;;;;;;;1.70;0.83;;;10.30;99.90;;;;;;5070175;28;20443;-73
2021/01/22 02:33:00;;;;;;;1.73;0.97;;;10.30;99.90;;;;;;5071030;28;20459;-73
2021/01/22 02:35:28;;;;;;;2.37;0.80;;;10.30;99.90;;;;;;5070948;28;21164;-73
2021/01/22 02:37:56;;;;;;;1.67;1.43;;;10.30;99.90;;;;;;5071175;28;20821;-73
2021/01/22 02:40:24;;;;;;;1.70;0.73;;;10.20;99.90;;;;;;5071872;28;20534;-73
2021/01/22 02:42:51;;;;;;;2.00;1.00;;;10.30;99.90;;;;;;5071544;28;20558;-72
2021/01/22 02:45:18;;;;;;;2.17;0.93;;;10.30;99.90;;;;;;5072910;28;20522;-73
2021/01/22 02:47:47;;;;;;;1.57;0.90;;;10.30;99.90;;;;;;5071245;28;20443;-73
2021/01/22 02:50:16;;;;;;;1.73;0.87;;;10.20;99.90;;;;;;5069919;28;20514;-73
2021/01/22 02:52:43;;;;;;;2.17;1.00;;;10.20;99.90;;;;;;5070682;28;20467;-73
2021/01/22 02:55:12;;;;;;;3.30;0.90;;;10.20;99.90;;;;;;5070587;28;20454;-73
2021/01/22 02:57:43;;;;;;;3.27;1.87;;;10.20;99.90;;;;;;5070595;28;20486;-73
2021/01/22 03:00:17;;;;;;;2.10;1.00;;;10.10;99.90;;;;;;5069907;28;20443;-73
2021/01/22 03:02:49;;;;;;;1.90;1.10;;;10.10;99.90;;;;;;5070250;28;20555;-73
2021/01/22 03:05:18;;;;;;;1.83;0.80;;;10.10;99.90;;;;;;5070314;28;20469;-73
2021/01/22 03:07:47;;;;;;;3.60;1.10;;;10.00;99.90;;;;;;5070447;28;20454;-72
2021/01/22 03:10:17;;;;;;;6.43;1.40;;;9.90;99.90;;;;;;5069414;28;20586;-73
2021/01/22 03:12:47;;;;;;;2.20;0.97;;;9.80;99.90;;;;;;5070411;28;20467;-73
2021/01/22 03:15:15;;;;;;;2.87;0.70;;;9.80;99.90;;;;;;5070065;28;20706;-73
2021/01/22 03:17:42;;;;;;;3.40;1.20;;;9.70;99.90;;;;;;5070163;28;21040;-73
2021/01/22 03:20:12;;;;;;;2.13;0.83;;;9.70;99.90;;;;;;5069811;28;20450;-73
2021/01/22 03:22:38;;;;;;;2.10;1.10;;;9.60;99.90;;;;;;5070113;28;20470;-73
2021/01/22 03:25:06;;;;;;;2.70;1.53;;;9.50;99.90;;;;;;5069868;28;20483;-72
2021/01/22 03:27:32;;;;;;;3.10;1.13;;;9.50;99.90;;;;;;5070310;28;20475;-72
2021/01/22 03:29:59;;;;;;;3.63;1.43;;;9.40;99.90;;;;;;5069367;28;20522;-72
2021/01/22 03:32:25;;;;;;;2.50;1.00;;;9.40;99.90;;;;;;5069952;28;20495;-72
2021/01/22 03:34:51;;;;;;;8.20;1.37;;;9.30;99.90;;;;;;5070064;28;20525;-72
2021/01/22 03:37:19;;;;;;;3.03;1.30;;;9.20;99.90;;;;;;5069469;28;20500;-72
2021/01/22 03:39:45;;;;;;;2.17;0.80;;;9.20;99.90;;;;;;5068433;28;20445;-72
2021/01/22 03:42:11;;;;;;;3.30;1.40;;;9.20;99.90;;;;;;5069435;28;20467;-71
2021/01/22 03:44:38;;;;;;;2.57;1.27;;;9.20;99.90;;;;;;5070256;28;20511;-72
2021/01/22 03:47:06;;;;;;;3.00;1.27;;;9.20;99.90;;;;;;5070025;28;20993;-72
2021/01/22 03:49:33;;;;;;;4.43;1.43;;;9.20;99.90;;;;;;5069095;28;20506;-72
2021/01/22 03:51:59;;;;;;;1.50;0.90;;;9.30;99.90;;;;;;5069796;28;20565;-72
2021/01/22 03:54:26;;;;;;;3.03;1.30;;;9.30;99.90;;;;;;5070066;28;20451;-72
2021/01/22 03:56:53;;;;;;;4.10;1.13;;;9.20;99.90;;;;;;5069608;28;21017;-72
2021/01/22 03:59:20;;;;;;;1.67;1.07;;;9.20;99.90;;;;;;5069401;28;20443;-72
2021/01/22 04:01:46;;;;;;;5.37;1.20;;;9.10;99.90;;;;;;5069723;28;20451;-73
2021/01/22 04:04:13;;;;;;;4.30;1.30;;;9.10;99.90;;;;;;5069548;28;20934;-74
2021/01/22 04:06:39;;;;;;;2.80;1.20;;;9.10;99.90;;;;;;5069731;28;20534;-73
2021/01/22 04:09:06;;;;;;;3.60;1.13;;;9.20;99.90;;;;;;5069553;28;20534;-73
2021/01/22 04:11:33;;;;;;;3.97;1.60;;;9.20;99.90;;;;;;5069759;28;20475;-73
2021/01/22 04:13:59;;;;;;;4.70;1.57;;;9.20;99.90;;;;;;5069417;28;20519;-73
2021/01/22 04:16:26;;;;;;;4.90;1.83;;;9.10;99.90;;;;;;5069493;28;20902;-73
2021/01/22 04:18:52;;;;;;;2.00;0.93;;;9.10;99.90;;;;;;5071224;28;20475;-73
2021/01/22 04:21:19;;;;;;;4.33;1.27;;;9.10;99.90;;;;;;5072778;28;20447;-71
2021/01/22 04:23:45;;;;;;;4.90;1.00;;;9.10;99.90;;;;;;5073307;28;20549;-71
2021/01/22 04:26:11;;;;;;;3.30;1.20;;;9.00;99.90;;;;;;5073131;28;20548;-72
2021/01/22 04:28:39;;;;;;;2.63;1.10;;;9.10;99.90;;;;;;5072966;28;21138;-72
2021/01/22 04:31:05;;;;;;;4.23;1.57;;;9.10;99.90;;;;;;5072636;28;20529;-72
2021/01/22 04:33:31;;;;;;;5.30;1.67;;;9.10;99.90;;;;;;5072822;28;20463;-72
2021/01/22 04:35:58;;;;;;;3.80;1.20;;;9.20;99.90;;;;;;5072769;28;20530;-72
2021/01/22 04:38:25;;;;;;;6.00;1.50;;;9.30;99.90;;;;;;5072843;28;20454;-72
2021/01/22 04:40:51;;;;;;;2.00;1.17;;;9.30;99.90;;;;;;5072428;28;20858;-72
2021/01/22 04:43:18;;;;;;;3.80;1.47;;;9.30;99.90;;;;;;5073004;28;20549;-72
2021/01/22 04:45:45;;;;;;;2.40;1.27;;;9.20;99.90;;;;;;5072569;28;20855;-72
2021/01/22 04:48:11;;;;;;;2.37;1.37;;;9.20;99.90;;;;;;5072901;28;20482;-72
2021/01/22 04:50:40;;;;;;;5.30;1.67;;;9.20;99.90;;;;;;5072062;28;20483;-72
2021/01/22 04:53:09;;;;;;;4.80;1.93;;;9.30;99.90;;;;;;5072375;28;20463;-72
2021/01/22 04:55:38;;;;;;;2.70;1.23;;;9.40;99.90;;;;;;5072393;28;20439;-72
2021/01/22 04:58:08;;;;;;;1.80;1.20;;;9.40;99.90;;;;;;5072760;28;20526;-72
2021/01/22 05:00:35;;;;;;;3.40;0.97;;;9.40;99.90;;;;;;5071718;28;21008;-72
2021/01/22 05:03:03;;;;;;;1.90;1.33;;;9.40;99.90;;;;;;5072271;28;20546;-72
2021/01/22 05:05:29;;;;;;;5.67;1.23;;;9.50;99.90;;;;;;5071380;28;20531;-72
2021/01/22 05:07:55;;;;;;;3.83;1.10;;;9.60;99.90;;;;;;5071810;28;21074;-72
2021/01/22 05:10:22;;;;;;;3.30;1.37;;;9.60;99.90;;;;;;5071575;28;20471;-72
2021/01/22 05:12:49;;;;;;;1.83;0.70;;;9.70;99.90;;;;;;5072377;28;20553;-72
2021/01/22 05:15:20;;;;;;;2.20;1.20;;;9.60;99.90;;;;;;5072425;28;20494;-72
2021/01/22 05:17:58;;;;;;;2.00;1.03;;;9.60;99.90;;;;;;5072223;28;20529;-72
2021/01/22 05:20:31;;;;;;;2.00;0.90;;;9.50;99.90;;;;;;5071728;28;20530;-73
2021/01/22 05:22:58;;;;;;;1.80;1.00;;;9.50;99.90;;;;;;5072138;28;20527;-72
2021/01/22 05:25:25;;;;;;;3.10;1.10;;;9.50;99.90;;;;;;5072174;28;20455;-72
2021/01/22 05:27:52;;;;;;;2.60;0.60;;;9.60;99.90;;;;;;5072212;28;20534;-72
2021/01/22 05:30:21;;;;;;;3.67;0.83;;;9.70;99.90;;;;;;5070703;28;20493;-71
2021/01/22 05:32:47;;;;;;;1.57;0.80;;;9.70;99.90;;;;;;5071685;28;20546;-72
2021/01/22 05:35:26;;;;;;;2.90;0.83;;;9.80;99.90;;;;;;5071114;28;20534;-72
2021/01/22 05:37:54;;;;;;;1.60;0.70;;;9.70;99.90;;;;;;5070937;28;20533;-72
2021/01/22 05:40:21;;;;;;;1.77;0.70;;;9.70;99.90;;;;;;5070402;28;20439;-72
2021/01/22 05:42:49;;;;;;;1.90;0.90;;;9.70;99.90;;;;;;5071171;28;20494;-72
2021/01/22 05:45:17;;;;;;;2.67;0.80;;;9.70;99.90;;;;;;5070985;28;20533;-72
2021/01/22 05:47:44;;;;;;;2.30;0.83;;;9.70;99.90;;;;;;5071093;28;20534;-71
2021/01/22 05:50:11;;;;;;;1.50;0.70;;;9.80;99.90;;;;;;5070345;28;20570;-72
2021/01/22 05:52:38;;;;;;;1.30;0.70;;;9.70;99.90;;;;;;5071043;28;20474;-72
2021/01/22 05:55:23;;;;;;;2.30;0.83;;;9.80;99.90;;;;;;5070955;28;20457;-72
2021/01/22 05:57:49;;;;;;;1.30;0.70;;;9.80;99.90;;;;;;5071040;28;20447;-72
2021/01/22 06:00:16;;;;;;;3.27;0.77;;;9.90;99.90;;;;;;5070436;28;20518;-72
2021/01/22 06:02:43;;;;;;;1.30;0.70;;;9.90;99.90;;;;;;5070961;28;20488;-72
2021/01/22 06:05:12;;;;;;;2.90;0.80;;;9.90;99.90;;;;;;5070804;28;20887;-72
2021/01/22 06:07:42;;;;;;;1.97;0.53;;;9.90;99.90;;;;;;5070740;28;20875;-72
2021/01/22 06:10:26;;;;;;;2.83;1.00;;;9.80;99.90;;;;;;5070111;28;20569;-72
2021/01/22 06:12:54;;;;;;;3.17;0.60;;;9.80;99.90;;;;;;5070955;28;20467;-72
2021/01/22 06:15:26;;;;;;;2.33;1.03;;;9.80;99.90;;;;;;5070384;28;20461;-73
2021/01/22 06:17:54;;;;;;;1.73;0.63;;;9.80;99.90;;;;;;5070433;28;20483;-73
2021/01/22 06:20:22;;;;;;;1.30;0.53;;;9.90;99.90;;;;;;5069700;28;20945;-73
2021/01/22 06:23:04;;;;;;;1.40;0.60;;;9.90;99.90;;;;;;5069596;28;20513;-72
2021/01/22 06:25:32;;;;;;;4.10;0.83;;;10.00;99.90;;;;;;5068655;28;20539;-70
2021/01/22 06:27:59;;;;;;;1.97;0.80;;;9.90;99.90;;;;;;5069196;28;20463;-72
2021/01/22 06:30:28;;;;;;;1.70;0.60;;;9.90;99.90;;;;;;5068249;28;20477;-73
2021/01/22 06:32:58;;;;;;;5.20;0.90;;;9.90;99.90;;;;;;5069064;28;20546;-73
2021/01/22 06:35:26;;;;;;;1.70;0.77;;;9.90;99.90;;;;;;5068867;28;20447;-74
2021/01/22 06:37:53;;;;;;;2.33;0.80;;;9.90;99.90;;;;;;5068949;28;20443;-74
2021/01/22 06:40:20;;;;;;;2.53;0.80;;;10.00;99.90;;;;;;5067822;28;20677;-73
2021/01/22 06:42:48;;;;;;;2.87;0.70;;;10.00;99.90;;;;;;5067525;28;20473;-74
2021/01/22 06:45:17;;;;;;;2.63;0.77;;;10.00;99.90;;;;;;5065813;28;20455;-72
2021/01/22 06:48:00;;;;;;;4.23;1.07;;;10.00;99.90;;;;;;5068763;28;20821;-72
2021/01/22 06:50:27;;;;;;;3.00;0.70;;;10.00;99.90;;;;;;5066586;28;20577;-72
2021/01/22 06:53:07;;;;;;;1.43;0.70;;;10.00;99.90;;;;;;5067742;28;21374;-72
2021/01/22 06:55:34;;;;;;;1.80;1.00;;;9.90;99.90;;;;;;5068223;28;20450;-72
2021/01/22 06:58:24;;;;;;;4.30;0.70;;;9.90;99.90;;;;;;5067661;28;20450;-73
2021/01/22 07:00:52;;;;;;;2.80;0.73;;;9.90;99.90;;;;;;5066529;28;20447;-72
2021/01/22 07:03:49;;;;;;;3.63;0.80;;;9.90;99.90;;;;;;5067434;28;20830;-71
2021/01/22 07:06:48;;;;;;;2.30;0.80;;;9.90;99.90;;;;;;5067404;28;20458;-71
2021/01/22 07:09:14;;;;;;;4.47;0.87;;;9.80;99.90;;;;;;5067547;28;20524;-76
2021/01/22 07:12:02;;;;;;;1.40;0.60;;;9.70;99.90;;;;;;5067263;28;20485;-75
2021/01/22 07:14:38;;;;;;;1.80;0.80;;;9.70;99.90;;;;;;5064409;28;20596;-74
2021/01/22 07:17:15;;;;;;;5.13;1.63;;;9.70;99.90;;;;;;5067757;28;20466;-73
2021/01/22 07:19:51;;;;;;;4.70;0.73;;;9.70;99.90;;;;;;5067039;28;20435;-74
2021/01/22 07:22:18;;;;;;;2.30;0.80;;;9.70;99.90;;;;;;5067349;28;20516;-74
2021/01/22 07:24:48;;;;;;;1.70;1.00;;;9.70;99.90;;;;;;5072592;28;20555;-72
2021/01/22 07:27:15;;;;;;;1.73;0.73;;;9.70;99.90;;;;;;5086324;28;20450;-72
2021/01/22 07:29:43;;;;;;;3.17;1.10;;;9.70;99.90;;;;;;5085627;28;20566;-71
2021/01/22 07:32:11;;;;;;;1.83;0.90;;;9.70;99.90;;;;;;5083341;28;20474;-72
2021/01/22 07:34:49;;;;;;;2.00;0.80;;;9.70;99.90;;;;;;5073079;28;20497;-71
2021/01/22 07:37:18;;;;;;;1.97;1.23;;;9.70;99.90;;;;;;5085856;28;20558;-70
2021/01/22 07:39:46;;;;;;;2.37;0.93;;;9.70;99.90;;;;;;5085514;28;20526;-70
2021/01/22 07:42:14;;;;;;;2.63;0.70;;;9.70;99.90;;;;;;5084596;28;20548;-70
2021/01/22 07:44:42;;;;;;;1.43;0.77;;;9.70;99.90;;;;;;5085323;28;20438;-73
2021/01/22 07:47:10;;;;;;;1.70;0.80;;;9.70;99.90;;;;;;5085557;28;20531;-74
2021/01/22 07:49:52;;;;;;;2.27;1.00;;;9.70;99.90;;;;;;5072678;28;20482;-72
2021/01/22 07:52:18;;;;;;;3.73;0.93;;;9.70;99.90;;;;;;5085828;28;20518;-71
2021/01/22 07:54:45;;;;;;;2.53;0.80;;;9.60;99.90;;;;;;5088901;28;20450;-73
2021/01/22 07:57:19;;;;;;;2.17;0.90;;;9.70;99.90;;;;;;5084634;28;20530;-74
2021/01/22 07:59:46;;;;;;;3.90;0.80;;;9.70;99.90;;;;;;5083594;28;20547;-73
2021/01/22 08:02:18;;;;;;;2.73;0.97;;;9.70;99.90;;;;;;5106330;28;20552;-72
2021/01/22 08:04:46;;;;;;;2.93;1.20;;;9.70;99.90;;;;;;5110034;28;20532;-72
2021/01/22 08:07:12;;;;;;;1.50;0.90;;;9.80;99.90;;;;;;5110236;28;20529;-71
2021/01/22 08:09:51;;;;;;;1.87;1.07;;;9.90;99.90;;;;;;5108622;28;20568;-74
2021/01/22 08:12:18;;;;;;;1.80;0.80;;;10.00;99.90;;;;;;5109876;28;20479;-72
2021/01/22 08:14:48;;;;;;;2.37;1.13;;;10.20;99.90;;;;;;5109811;28;20452;-72
2021/01/22 08:17:14;;;;;;;2.10;0.70;;;10.20;99.90;;;;;;5109349;28;20460;-73
2021/01/22 08:23:06;;;;;;;3.10;0.70;;;10.40;99.90;;;;;;5082755;28;20446;-74
2021/01/22 08:25:35;;;;;;;5.77;0.93;;;10.50;99.90;;;;;;5068670;28;21055;-74
2021/01/22 08:28:03;;;;;;;3.07;0.90;;;10.70;99.90;;;;;;5068516;28;20442;-72
2021/01/22 08:30:30;;;;;;;1.50;0.63;;;10.80;99.90;;;;;;5066774;28;20909;-72
2021/01/22 08:32:57;;;;;;;2.07;0.90;;;10.90;99.90;;;;;;5069016;28;20478;-75
2021/01/22 08:35:27;;;;;;;2.83;0.90;;;11.00;99.90;;;;;;5069006;28;20559;-74
2021/01/22 08:37:55;;;;;;;1.60;0.83;;;11.20;99.90;;;;;;5068817;28;21130;-74
2021/01/22 08:40:35;;;;;;;1.50;0.73;;;11.30;99.90;;;;;;5067890;28;20481;-73
2021/01/22 08:43:05;;;;;;;4.50;0.97;;;11.30;99.90;;;;;;5068799;28;20498;-72
2021/01/22 08:45:32;;;;;;;2.53;1.00;;;11.40;99.90;;;;;;5068794;28;20447;-72
2021/01/22 08:47:58;;;;;;;3.23;0.90;;;11.50;99.90;;;;;;5068487;28;20541;-72
2021/01/22 08:50:25;;;;;;;1.97;0.93;;;11.60;99.90;;;;;;5067746;28;20573;-73
2021/01/22 08:53:08;;;;;;;3.10;0.77;;;11.80;99.90;;;;;;5068316;28;20486;-73
2021/01/22 08:55:36;;;;;;;2.80;1.03;;;12.00;99.90;;;;;;5069046;28;20450;-74
2021/01/22 08:58:04;;;;;;;2.57;0.80;;;12.20;99.90;;;;;;5068575;28;20447;-73
2021/01/22 09:00:31;;;;;;;2.93;0.90;;;12.30;99.90;;;;;;5066581;28;20467;-73
2021/01/22 09:02:57;;;;;;;2.47;0.90;;;12.40;99.90;;;;;;5068494;28;20855;-73
2021/01/22 09:05:25;;;;;;;2.67;0.97;;;12.50;99.90;;;;;;5073041;28;21149;-72
2021/01/22 09:08:08;;;;;;;1.80;0.90;;;12.60;99.90;;;;;;5088277;28;21004;-74
2021/01/22 09:10:41;;;;;;;1.80;1.10;;;12.60;99.90;;;;;;5087534;28;20474;-73
2021/01/22 09:13:12;;;;;;;4.53;0.90;;;12.50;99.90;;;;;;5088176;28;20562;-73
2021/01/22 09:15:39;;;;;;;3.93;1.07;;;12.40;99.90;;;;;;5088130;28;20454;-73
2021/01/22 09:18:15;;;;;;;2.20;1.03;;;12.30;99.90;;;;;;5088419;28;20949;-77
2021/01/22 09:20:43;;;;;;;3.40;1.23;;;12.20;99.90;;;;;;5086875;28;20442;-76
2021/01/22 09:23:09;;;;;;;4.60;1.20;;;12.20;99.90;;;;;;5085244;28;20543;-74
2021/01/22 09:25:37;;;;;;;2.60;0.97;;;12.00;99.90;;;;;;5088008;28;20954;-73
2021/01/22 09:28:03;;;;;;;3.10;0.90;;;11.90;99.90;;;;;;5097086;28;20461;-73
2021/01/22 09:30:30;;;;;;;2.97;0.90;;;11.90;99.90;;;;;;5102629;28;20556;-74
2021/01/22 09:32:58;;;;;;;3.37;1.20;;;11.90;99.90;;;;;;5094908;28;20811;-72
2021/01/22 09:35:26;;;;;;;1.63;0.93;;;12.00;99.90;;;;;;5103103;28;20444;-71
2021/01/22 09:37:53;;;;;;;3.03;0.80;;;12.20;99.90;;;;;;5099047;28;20445;-71
2021/01/22 09:40:20;;;;;;;4.20;1.00;;;12.30;99.90;;;;;;5082684;28;20524;-73
2021/01/22 09:42:48;;;;;;;2.17;0.87;;;12.50;99.90;;;;;;5091702;28;21205;-71
2021/01/22 09:45:15;;;;;;;1.97;0.97;;;12.70;99.90;;;;;;5099204;28;20437;-72
2021/01/22 09:47:42;;;;;;;2.33;0.90;;;12.90;99.90;;;;;;5091161;28;20484;-73
2021/01/22 09:50:11;;;;;;;6.00;1.50;;;12.90;99.90;;;;;;5086721;28;20569;-72
2021/01/22 09:52:38;;;;;;;2.90;0.83;;;12.90;99.90;;;;;;5103838;28;20560;-74
2021/01/22 09:55:06;;;;;;;3.13;1.10;;;12.80;99.90;;;;;;5107945;28;20449;-74
2021/01/22 09:57:33;;;;;;;3.40;1.17;;;12.90;99.90;;;;;;5107539;28;20453;-71
2021/01/22 10:00:00;;;;;;;2.77;1.17;;;12.80;99.90;;;;;;5106766;28;20605;-73
2021/01/22 10:02:27;;;;;;;2.53;1.00;;;12.80;99.90;;;;;;5101205;28;21297;-73
2021/01/22 10:04:53;;;;;;;3.80;1.30;;;12.80;99.90;;;;;;5087791;28;20480;-75
2021/01/22 10:07:20;;;;;;;1.80;0.90;;;12.80;99.90;;;;;;5087949;28;20500;-76
2021/01/22 10:09:46;;;;;;;3.20;1.13;;;12.80;99.90;;;;;;5088010;28;20509;-73
2021/01/22 10:12:13;;;;;;;2.60;1.30;;;12.80;99.90;;;;;;5087910;28;21039;-72
2021/01/22 10:14:40;;;;;;;2.80;1.03;;;12.90;99.90;;;;;;5087692;28;21039;-71
2021/01/22 10:17:08;;;;;;;2.30;1.20;;;13.00;99.90;;;;;;5087484;28;20454;-73
2021/01/22 10:19:34;;;;;;;3.20;1.37;;;13.10;99.90;;;;;;5095618;28;20464;-72
2021/01/22 10:22:01;;;;;;;3.60;1.10;;;13.20;99.90;;;;;;5100760;28;20465;-72
2021/01/22 10:24:27;;;;;;;3.50;1.23;;;13.30;99.90;;;;;;5109494;27;20488;-72
2021/01/22 10:26:54;;;;;;;4.73;1.20;;;13.30;99.90;;;;;;5109592;28;20480;-73
2021/01/22 10:29:20;;;;;;;3.57;1.17;;;13.30;99.90;;;;;;5104046;28;20564;-73
2021/01/22 10:31:47;;;;;;;2.70;1.53;;;13.30;99.90;;;;;;5089322;28;20479;-71
2021/01/22 10:34:14;;;;;;;2.30;1.00;;;13.30;99.90;;;;;;5089687;28;20482;-72
2021/01/22 10:36:40;;;;;;;2.20;0.97;;;13.40;99.90;;;;;;5092867;28;20529;-73
2021/01/22 10:39:07;;;;;;;2.60;1.20;;;13.40;99.90;;;;;;5099376;28;20987;-73
2021/01/22 10:41:34;;;;;;;2.60;1.10;;;13.60;99.90;;;;;;5099548;28;21208;-73
2021/01/22 10:44:01;;;;;;;7.70;1.50;;;13.80;99.90;;;;;;5108351;28;20465;-74
2021/01/22 10:46:28;;;;;;;5.17;1.30;;;14.00;99.90;;;;;;5106469;28;20477;-72
2021/01/22 10:48:55;;;;;;;2.00;1.07;;;14.20;99.90;;;;;;5099307;28;20480;-74
2021/01/22 10:51:22;;;;;;;5.87;1.40;;;14.30;99.90;;;;;;5107729;28;20441;-74
2021/01/22 10:53:49;;;;;;;5.20;1.30;;;14.30;99.90;;;;;;5107781;28;20468;-74
2021/01/22 10:56:16;;;;;;;4.27;1.27;;;14.70;99.90;;;;;;5108955;28;20453;-73
2021/01/22 10:58:46;;;;;;;3.30;1.20;;;15.00;99.90;;;;;;5107966;28;20445;-74
2021/01/22 11:01:12;;;;;;;3.97;1.43;;;15.10;99.90;;;;;;5105513;28;20466;-73
2021/01/22 11:03:39;;;;;;;3.30;1.33;;;15.30;99.90;;;;;;5107783;28;20501;-73
2021/01/22 11:06:06;;;;;;;2.13;1.03;;;15.20;99.90;;;;;;5106558;28;20477;-75
2021/01/22 11:08:34;;;;;;;2.77;1.10;;;15.20;99.90;;;;;;5095756;28;20488;-74
2021/01/22 11:11:00;;;;;;;5.60;1.40;;;15.10;99.90;;;;;;5084873;28;20492;-73
2021/01/22 11:13:27;;;;;;;4.20;0.97;;;15.00;99.90;;;;;;5085647;28;20483;-73
2021/01/22 11:15:53;;;;;;;2.93;0.77;;;15.00;99.90;;;;;;5085908;28;21024;-73
2021/01/22 11:18:20;;;;;;;3.33;1.17;;;15.00;99.90;;;;;;5086604;28;20446;-72
2021/01/22 11:20:47;;;;;;;2.40;0.90;;;14.90;99.90;;;;;;5084880;28;21112;-72
2021/01/22 11:23:13;;;;;;;1.70;0.70;;;14.80;99.90;;;;;;5086385;28;20474;-72
2021/01/22 11:25:40;;;;;;;2.60;1.00;;;14.80;99.90;;;;;;5086117;28;20810;-72
2021/01/22 11:28:07;;;;;;;2.67;1.00;;;14.70;99.90;;;;;;5085873;28;20442;-73
2021/01/22 11:30:33;;;;;;;6.10;1.83;;;14.60;99.90;;;;;;5088912;28;20535;-74
2021/01/22 11:33:01;;;;;;;2.10;1.00;;;14.50;99.90;;;;;;5088471;28;20461;-73
2021/01/22 11:35:27;;;;;;;4.60;1.03;;;14.50;99.90;;;;;;5089083;28;20449;-73
2021/01/22 11:37:54;;;;;;;2.00;0.97;;;14.40;99.90;;;;;;5101922;28;20441;-73
2021/01/22 11:40:20;;;;;;;2.90;1.13;;;14.20;99.90;;;;;;5094516;28;20526;-71
2021/01/22 11:42:48;;;;;;;4.40;1.43;;;14.10;99.90;;;;;;5090695;28;20463;-72
2021/01/22 11:45:15;;;;;;;2.57;1.00;;;14.10;99.90;;;;;;5071158;28;20820;-72
2021/01/22 11:47:42;;;;;;;2.53;0.97;;;14.10;99.90;;;;;;5071579;28;20474;-72
2021/01/22 11:50:09;;;;;;;2.60;1.30;;;14.20;99.90;;;;;;5070080;28;21060;-71
2021/01/22 11:52:35;;;;;;;2.57;0.90;;;14.40;99.90;;;;;;5071302;28;20528;-72
2021/01/22 11:55:02;;;;;;;4.53;1.50;;;14.50;99.90;;;;;;5071033;28;21036;-72
2021/01/22 11:57:28;;;;;;;3.10;0.97;;;14.60;99.90;;;;;;5071399;28;20478;-73
2021/01/22 11:59:56;;;;;;;2.30;0.90;;;14.60;99.90;;;;;;5070446;28;20443;-73
2021/01/22 12:02:22;;;;;;;1.27;0.60;;;14.70;99.90;;;;;;5071039;28;20474;-72
2021/01/22 12:04:49;;;;;;;3.33;1.17;;;14.60;99.90;;;;;;5071450;28;20501;-76
2021/01/22 12:07:15;;;;;;;1.70;0.80;;;14.50;99.90;;;;;;5070780;28;20481;-73
2021/01/22 12:09:42;;;;;;;1.60;0.83;;;14.50;99.90;;;;;;5080991;28;20573;-72
2021/01/22 12:12:09;;;;;;;2.03;1.00;;;14.40;99.90;;;;;;5099165;28;20509;-72
2021/01/22 12:14:35;;;;;;;3.03;1.23;;;14.30;99.90;;;;;;5092190;28;20461;-73
2021/01/22 12:17:02;;;;;;;3.53;0.93;;;14.30;99.90;;;;;;5098094;28;20553;-72
2021/01/22 12:19:29;;;;;;;5.27;1.00;;;14.30;99.90;;;;;;5084066;28;20451;-74
2021/01/22 12:21:55;;;;;;;2.57;1.30;;;14.30;99.90;;;;;;5098602;28;20461;-73
2021/01/22 12:24:22;;;;;;;1.60;1.07;;;14.40;99.90;;;;;;5105433;28;20444;-72
2021/01/22 12:26:48;;;;;;;2.47;1.00;;;14.40;99.90;;;;;;5083073;28;20578;-73
2021/01/22 12:29:15;;;;;;;1.57;0.87;;;14.40;99.90;;;;;;5083870;28;20456;-73
2021/01/22 12:31:41;;;;;;;2.10;1.00;;;14.50;99.90;;;;;;5076736;28;20455;-72
2021/01/22 12:34:09;;;;;;;3.73;1.00;;;14.60;99.90;;;;;;5100096;28;20477;-72
2021/01/22 12:36:36;;;;;;;3.30;1.00;;;14.60;99.90;;;;;;5085630;28;20474;-72
2021/01/22 12:39:03;;;;;;;1.40;0.70;;;14.60;99.90;;;;;;5098944;27;20465;-73
2021/01/22 12:41:30;;;;;;;2.60;0.83;;;14.80;99.90;;;;;;5098737;28;20506;-73
2021/01/22 12:43:57;;;;;;;4.73;1.20;;;15.00;99.90;;;;;;5090728;28;20475;-72
2021/01/22 12:46:23;;;;;;;2.10;1.27;;;15.20;99.90;;;;;;5094654;28;20507;-72
2021/01/22 12:48:50;;;;;;;2.73;0.80;;;15.40;99.50;;;;;;5100965;28;20456;-72
2021/01/22 12:51:17;;;;;;;4.47;1.10;;;15.70;99.20;;;;;;5097913;28;20509;-72
2021/01/22 12:53:43;;;;;;;1.70;0.70;;;16.00;99.30;;;;;;5105764;28;20465;-72
2021/01/22 12:56:10;;;;;;;2.03;1.00;;;16.10;98.80;;;;;;5098959;28;20881;-72
2021/01/22 12:58:36;;;;;;;2.37;0.60;;;16.20;98.20;;;;;;5103704;28;20448;-74